createdAt,value
2023-01-02T00:01:42.266Z,95707.69
2023-01-02T00:04:10.554Z,95717.91
2023-01-02T00:06:40.023Z,95684.75
2023-01-02T00:09:10.156Z,95703.38
2023-01-02T00:11:38.468Z,95649.00
2023-01-02T00:14:07.254Z,95696.91
2023-01-02T00:16:35.709Z,95680.97
2023-01-02T00:19:04.165Z,95643.06
2023-01-02T00:21:32.547Z,95702.81
2023-01-02T00:24:00.899Z,95700.16
2023-01-02T00:26:31.457Z,95631.75
2023-01-02T00:28:59.886Z,95655.13
2023-01-02T00:31:28.257Z,95669.38
2023-01-02T00:33:56.672Z,95685.31
2023-01-02T00:36:26.641Z,95658.88
2023-01-02T00:38:56.663Z,95687.47
2023-01-02T00:41:25.442Z,95667.25
2023-01-02T00:43:55.316Z,95703.38
2023-01-02T00:46:23.651Z,95692.84
2023-01-02T00:48:52.142Z,95693.91
2023-01-02T00:51:20.527Z,95704.16
2023-01-02T00:53:48.890Z,95707.09
2023-01-02T00:56:17.277Z,95696.38
2023-01-02T00:58:45.847Z,95710.38
2023-01-02T01:01:15.700Z,95691.47
2023-01-02T01:03:44.320Z,95679.91
2023-01-02T01:06:13.027Z,95686.66
2023-01-02T01:08:41.716Z,95654.88
2023-01-02T01:11:12.188Z,95688.53
2023-01-02T01:13:41.123Z,95683.41
2023-01-02T01:16:11.813Z,95679.63
2023-01-02T01:18:42.001Z,95691.22
2023-01-02T01:21:11.488Z,95685.03
2023-01-02T01:23:40.384Z,95689.88
2023-01-02T01:26:10.908Z,95651.66
2023-01-02T01:28:39.889Z,95598.13
2023-01-02T01:31:10.355Z,95672.63
2023-01-02T01:33:39.398Z,95676.72
2023-01-02T01:36:11.873Z,95679.91
2023-01-02T01:38:40.288Z,95638.78
2023-01-02T01:41:09.715Z,95679.13
2023-01-02T01:43:39.665Z,95642.53
2023-01-02T01:46:11.305Z,95654.13
2023-01-02T01:48:40.158Z,95667.03
2023-01-02T01:51:09.996Z,95654.88
2023-01-02T01:53:39.792Z,95664.03
2023-01-02T01:56:09.883Z,95668.88
2023-01-02T01:58:43.315Z,95598.69
2023-01-02T02:01:14.030Z,95627.19
2023-01-02T02:03:45.069Z,95655.44
2023-01-02T02:06:14.977Z,95667.28
2023-01-02T02:08:49.311Z,95667.84
2023-01-02T02:11:19.253Z,95660.28
2023-01-02T02:13:48.232Z,95655.69
2023-01-02T02:16:26.571Z,95638.75
2023-01-02T02:19:18.972Z,95649.47
2023-01-02T02:22:07.281Z,95641.91
2023-01-02T02:25:10.932Z,95631.69
2023-01-02T02:28:01.271Z,95634.38
2023-01-02T02:30:36.155Z,95587.09
2023-01-02T02:33:28.829Z,95633.31
2023-01-02T02:36:05.423Z,95624.69
2023-01-02T02:38:48.587Z,95629.00
2023-01-02T02:41:29.782Z,95632.22
2023-01-02T02:44:06.797Z,95626.28
2023-01-02T02:46:43.575Z,95617.69
2023-01-02T02:49:23.052Z,95589.72
2023-01-02T02:51:58.948Z,95607.47
2023-01-02T02:54:35.086Z,95610.16
2023-01-02T02:57:05.125Z,95593.97
2023-01-02T02:59:35.359Z,95584.88
2023-01-02T03:02:05.575Z,95589.41
2023-01-02T03:04:34.099Z,95601.00
2023-01-02T03:07:16.739Z,95598.28
2023-01-02T03:09:58.566Z,95603.16
2023-01-02T03:12:36.466Z,95589.47
2023-01-02T03:15:16.217Z,95607.25
2023-01-02T03:18:00.063Z,95599.41
2023-01-02T03:20:32.668Z,95595.69
2023-01-02T03:23:05.952Z,95594.06
2023-01-02T03:25:35.850Z,95505.06
2023-01-02T03:28:09.147Z,95585.69
2023-01-02T03:30:41.309Z,95572.53
2023-01-02T03:33:18.114Z,95581.13
2023-01-02T03:35:50.655Z,95563.88
2023-01-02T03:38:25.220Z,95569.25
2023-01-02T03:41:01.757Z,95584.63
2023-01-02T03:43:33.463Z,95576.56
2023-01-02T03:46:10.189Z,95560.16
2023-01-02T03:48:44.452Z,95576.78
2023-01-02T03:51:13.476Z,95582.19
2023-01-02T03:53:42.053Z,95547.25
2023-01-02T03:56:18.186Z,95582.44
2023-01-02T03:58:51.959Z,95591.88
2023-01-02T04:01:26.636Z,95584.09
2023-01-02T04:04:01.623Z,95564.91
2023-01-02T04:06:35.373Z,95556.88
2023-01-02T04:09:06.949Z,95551.22
2023-01-02T04:11:38.459Z,95577.88
2023-01-02T04:14:16.710Z,95567.63
2023-01-02T04:16:47.487Z,95568.44
2023-01-02T04:19:22.833Z,95564.13
2023-01-02T04:21:54.479Z,95568.16
2023-01-02T04:24:28.113Z,95546.03
2023-01-02T04:27:01.656Z,95576.25
2023-01-02T04:29:30.961Z,95567.63
2023-01-02T04:32:05.219Z,95536.19
2023-01-02T04:34:38.780Z,95576.22
2023-01-02T04:37:07.270Z,95570.31
2023-01-02T04:39:38.762Z,95560.63
2023-01-02T04:42:07.214Z,95574.59
2023-01-02T04:44:35.557Z,95579.69
2023-01-02T04:47:03.870Z,95560.88
2023-01-02T04:49:32.199Z,95579.44
2023-01-02T04:52:01.978Z,95570.59
2023-01-02T04:54:30.368Z,95590.75
2023-01-02T04:56:58.720Z,95579.19
2023-01-02T04:59:27.079Z,95570.28
2023-01-02T05:01:55.471Z,95574.06
2023-01-02T05:04:23.871Z,95593.44
2023-01-02T05:06:52.232Z,95591.84
2023-01-02T05:09:22.025Z,95586.44
2023-01-02T05:11:50.366Z,95569.75
2023-01-02T05:14:18.738Z,95578.34
2023-01-02T05:16:48.426Z,95580.50
2023-01-02T05:19:16.870Z,95593.47
2023-01-02T05:22:02.369Z,95587.50
2023-01-02T05:24:32.146Z,95572.38
2023-01-02T05:27:00.469Z,95573.75
2023-01-02T05:29:29.015Z,95560.03
2023-01-02T05:31:57.415Z,95575.09
2023-01-02T05:34:25.711Z,95577.50
2023-01-02T05:36:54.161Z,95592.91
2023-01-02T05:39:22.436Z,95580.47
2023-01-02T05:41:52.199Z,95584.81
2023-01-02T05:44:20.478Z,95573.00
2023-01-02T05:46:48.877Z,95554.44
2023-01-02T05:49:17.266Z,95575.06
2023-01-02T05:51:45.675Z,95556.28
2023-01-02T05:54:14.095Z,95588.59
2023-01-02T05:56:42.351Z,95585.88
2023-01-02T05:59:12.135Z,95598.53
2023-01-02T06:01:40.505Z,95582.66
2023-01-02T06:04:09.070Z,95589.09
2023-01-02T06:06:39.663Z,95601.50
2023-01-02T06:09:09.520Z,95548.84
2023-01-02T06:11:38.500Z,95597.16
2023-01-02T06:14:06.766Z,95610.09
2023-01-02T06:16:36.814Z,95597.72
2023-01-02T06:19:05.287Z,95579.88
2023-01-02T06:21:33.737Z,95594.19
2023-01-02T06:24:02.219Z,95480.81
2023-01-02T06:26:34.969Z,95570.56
2023-01-02T06:29:04.931Z,95582.72
2023-01-02T06:31:33.876Z,95589.75
2023-01-02T06:34:04.602Z,95610.66
2023-01-02T06:36:34.420Z,95624.69
2023-01-02T06:39:02.878Z,95626.59
2023-01-02T06:41:31.469Z,95625.78
2023-01-02T06:43:59.833Z,95619.56
2023-01-02T06:46:28.164Z,95601.53
2023-01-02T06:48:56.838Z,95629.00
2023-01-02T06:51:26.613Z,95635.50
2023-01-02T06:53:55.742Z,95605.88
2023-01-02T06:56:24.539Z,95619.63
2023-01-02T06:58:52.857Z,95624.19
2023-01-02T07:01:23.016Z,95643.34
2023-01-02T07:03:51.737Z,95614.53
2023-01-02T07:06:22.043Z,95629.88
2023-01-02T07:08:51.932Z,95615.63
2023-01-02T07:11:22.419Z,95640.13
2023-01-02T07:13:52.608Z,95620.72
2023-01-02T07:16:23.054Z,95614.28
2023-01-02T07:18:52.944Z,95605.97
2023-01-02T07:21:21.720Z,95634.50
2023-01-02T07:23:51.671Z,95624.78
2023-01-02T07:26:20.253Z,95617.81
2023-01-02T07:28:49.148Z,95622.63
2023-01-02T07:31:19.346Z,95623.72
2023-01-02T07:33:48.232Z,95637.47
2023-01-02T07:36:19.128Z,95635.56
2023-01-02T07:38:53.480Z,95609.72
2023-01-02T07:41:23.836Z,95614.56
2023-01-02T07:43:55.210Z,95636.63
2023-01-02T07:46:24.614Z,95622.13
2023-01-02T07:48:53.030Z,95638.78
2023-01-02T07:51:27.020Z,95644.19
2023-01-02T07:53:57.390Z,95644.44
2023-01-02T07:56:26.016Z,95644.19
2023-01-02T07:58:54.333Z,95649.53
2023-01-02T08:01:22.983Z,95651.69
2023-01-02T08:03:51.506Z,95652.78
2023-01-02T08:06:20.297Z,95610.84
2023-01-02T08:08:49.165Z,95656.00
2023-01-02T08:11:21.555Z,95666.22
2023-01-02T08:13:50.275Z,95651.16
2023-01-02T08:16:20.781Z,95632.03
2023-01-02T08:18:51.593Z,95653.84
2023-01-02T08:21:20.207Z,95640.38
2023-01-02T08:23:48.563Z,95637.16
2023-01-02T08:26:18.534Z,95630.69
2023-01-02T08:28:46.932Z,95641.19
2023-01-02T08:31:16.943Z,95640.13
2023-01-02T08:33:45.444Z,95633.66
2023-01-02T08:36:14.776Z,95652.25
2023-01-02T08:38:43.174Z,95634.75
2023-01-02T08:41:11.675Z,95640.91
2023-01-02T08:43:41.340Z,95632.31
2023-01-02T08:46:11.368Z,95636.59
2023-01-02T08:48:39.852Z,95609.41
2023-01-02T08:51:08.574Z,95621.28
2023-01-02T08:53:36.955Z,95634.75
2023-01-02T08:56:23.478Z,95613.19
2023-01-02T08:58:55.385Z,95643.63
2023-01-02T09:01:25.196Z,95633.66
2023-01-02T09:03:54.152Z,95634.47
2023-01-02T09:06:23.286Z,95645.22
2023-01-02T09:08:53.028Z,95633.94
2023-01-02T09:11:23.882Z,95652.25
2023-01-02T09:13:53.956Z,95660.34
2023-01-02T09:16:23.325Z,95627.94
2023-01-02T09:18:52.104Z,95650.59
2023-01-02T09:21:21.372Z,95626.34
2023-01-02T09:23:49.729Z,95619.59
2023-01-02T09:26:18.466Z,95634.66
2023-01-02T09:28:46.975Z,95623.31
2023-01-02T09:31:18.150Z,95633.28
2023-01-02T09:33:47.858Z,95638.41
2023-01-02T09:36:18.386Z,95612.59
2023-01-02T09:38:52.193Z,95638.13
2023-01-02T09:41:34.538Z,95638.09
2023-01-02T09:44:06.780Z,95646.44
2023-01-02T09:46:45.670Z,95644.22
2023-01-02T09:49:15.939Z,95648.84
2023-01-02T09:51:45.400Z,95636.91
2023-01-02T09:54:19.417Z,95628.25
2023-01-02T09:56:51.535Z,95627.16
2023-01-02T09:59:27.913Z,95620.66
2023-01-02T10:02:11.613Z,95638.41
2023-01-02T10:05:04.878Z,95639.97
2023-01-02T10:07:42.885Z,95625.13
2023-01-02T10:10:18.171Z,95637.03
2023-01-02T10:13:00.609Z,95641.53
2023-01-02T10:15:30.818Z,95629.75
2023-01-02T10:18:10.716Z,95620.56
2023-01-02T10:20:42.266Z,95606.78
2023-01-02T10:23:14.828Z,95614.28
2023-01-02T10:25:52.612Z,95598.44
2023-01-02T10:28:31.923Z,95568.56
2023-01-02T10:31:07.543Z,95595.19
2023-01-02T10:33:46.289Z,95596.56
2023-01-02T10:36:25.041Z,95610.31
2023-01-02T10:38:54.640Z,95591.16
2023-01-02T10:41:23.088Z,95621.22
2023-01-02T10:43:55.819Z,95556.34
2023-01-02T10:46:24.206Z,95597.78
2023-01-02T10:48:54.094Z,95590.50
2023-01-02T10:51:22.422Z,95592.38
2023-01-02T10:54:01.838Z,95618.72
2023-01-02T10:56:33.179Z,95574.06
2023-01-02T10:59:02.478Z,95609.84
2023-01-02T11:01:31.695Z,95599.38
2023-01-02T11:04:21.850Z,95593.16
2023-01-02T11:06:56.823Z,95600.50
2023-01-02T11:09:27.239Z,95608.84
2023-01-02T11:11:57.251Z,95609.44
2023-01-02T11:14:30.936Z,95603.63
2023-01-02T11:17:06.261Z,95616.56
2023-01-02T11:19:41.621Z,95615.66
2023-01-02T11:22:11.057Z,95602.69
2023-01-02T11:24:59.618Z,95603.50
2023-01-02T11:27:32.336Z,95611.16
2023-01-02T11:30:01.927Z,95578.34
2023-01-02T11:32:38.792Z,95606.09
2023-01-02T11:35:33.636Z,95606.59
2023-01-02T11:38:03.251Z,95609.03
2023-01-02T11:40:33.360Z,95607.28
2023-01-02T11:43:26.026Z,95612.28
2023-01-02T11:45:55.339Z,95563.25
2023-01-02T11:48:24.938Z,95596.22
2023-01-02T11:50:54.997Z,95611.56
2023-01-02T11:53:28.728Z,95602.50
2023-01-02T11:55:59.746Z,95613.97
2023-01-02T11:58:35.949Z,95607.84
2023-01-02T12:01:11.387Z,95614.84
2023-01-02T12:03:41.128Z,95610.50
2023-01-02T12:06:18.287Z,95603.94
2023-01-02T12:09:03.976Z,95588.41
2023-01-02T12:11:50.436Z,95604.88
2023-01-02T12:14:21.893Z,95575.63
2023-01-02T12:16:57.238Z,95607.09
2023-01-02T12:20:03.393Z,95598.13
2023-01-02T12:22:56.423Z,95612.56
2023-01-02T12:25:47.382Z,95612.47
2023-01-02T12:28:35.114Z,95608.28
2023-01-02T12:31:21.057Z,95604.84
2023-01-02T12:33:58.300Z,95613.94
2023-01-02T12:36:36.032Z,95616.78
2023-01-02T12:39:24.314Z,95602.44
2023-01-02T12:42:02.578Z,95604.75
2023-01-02T12:44:49.858Z,95591.50
2023-01-02T12:47:43.862Z,95626.69
2023-01-02T12:50:26.153Z,95587.81
2023-01-02T12:53:05.571Z,95623.06
2023-01-02T12:55:47.505Z,95636.16
2023-01-02T12:58:28.515Z,95623.06
2023-01-02T13:01:08.973Z,95637.41
2023-01-02T13:03:46.739Z,95634.41
2023-01-02T13:06:45.967Z,95639.00
2023-01-02T13:09:14.608Z,95662.31
2023-01-02T13:11:57.145Z,95675.25
2023-01-02T13:14:32.535Z,95673.06
2023-01-02T13:17:12.727Z,95663.00
2023-01-02T13:19:48.241Z,95658.25
2023-01-02T13:22:28.715Z,95655.22
2023-01-02T13:24:59.280Z,95660.88
2023-01-02T13:27:29.633Z,95653.19
2023-01-02T13:29:58.151Z,95662.97
2023-01-02T13:32:31.969Z,95648.16
2023-01-02T13:35:03.988Z,95659.97
2023-01-02T13:37:32.742Z,95640.97
2023-01-02T13:40:03.553Z,95637.22
2023-01-02T13:42:52.878Z,95573.50
2023-01-02T13:45:34.292Z,95653.84
2023-01-02T13:48:06.648Z,95665.78
2023-01-02T13:50:37.067Z,95658.34
2023-01-02T13:53:09.265Z,95669.63
2023-01-02T13:56:05.643Z,95677.69
2023-01-02T13:58:50.121Z,95684.22
2023-01-02T14:01:42.422Z,95676.63
2023-01-02T14:04:30.815Z,95693.66
2023-01-02T14:07:40.767Z,95700.69
2023-01-02T14:10:34.730Z,95687.97
2023-01-02T14:13:20.787Z,95696.59
2023-01-02T14:16:22.319Z,95705.84
2023-01-02T14:19:18.908Z,95703.34
2023-01-02T14:21:50.374Z,95705.31
2023-01-02T14:24:29.923Z,95718.81
2023-01-02T14:27:01.949Z,95703.25
2023-01-02T14:29:31.866Z,95675.34
2023-01-02T14:32:07.005Z,95729.69
2023-01-02T14:34:36.246Z,95711.91
2023-01-02T14:37:04.808Z,95728.41
2023-01-02T14:39:37.045Z,95731.94
2023-01-02T14:42:43.029Z,95727.06
2023-01-02T14:45:18.970Z,95731.97
2023-01-02T14:47:53.412Z,95744.31
2023-01-02T14:50:25.238Z,95738.97
2023-01-02T14:53:01.459Z,95743.53
2023-01-02T14:55:41.023Z,95713.69
2023-01-02T14:58:18.856Z,95731.97
2023-01-02T15:00:50.016Z,95752.75
2023-01-02T15:03:27.338Z,95737.63
2023-01-02T15:06:00.799Z,95740.34
2023-01-02T15:08:37.144Z,95742.25
2023-01-02T15:11:34.048Z,95746.00
2023-01-02T15:14:06.328Z,95732.03
2023-01-02T15:16:44.428Z,95749.25
2023-01-02T15:19:24.412Z,95741.75
2023-01-02T15:21:54.952Z,95755.22
2023-01-02T15:24:27.080Z,95759.53
2023-01-02T15:26:55.783Z,95761.66
2023-01-02T15:29:27.473Z,95746.06
2023-01-02T15:31:57.234Z,95774.03
2023-01-02T15:34:30.361Z,95772.41
2023-01-02T15:37:03.724Z,95767.31
2023-01-02T15:39:38.012Z,95767.56
2023-01-02T15:42:29.576Z,95785.31
2023-01-02T15:45:10.418Z,95786.63
2023-01-02T15:47:39.948Z,95814.94
2023-01-02T15:50:16.704Z,95813.06
2023-01-02T15:52:47.871Z,95822.75
2023-01-02T15:55:18.209Z,95821.41
2023-01-02T15:57:53.835Z,95837.34
2023-01-02T16:00:37.671Z,95837.59
2023-01-02T16:03:06.448Z,95795.56
2023-01-02T16:05:49.827Z,95839.19
2023-01-02T16:08:21.352Z,95794.44
2023-01-02T16:10:51.495Z,95833.81
2023-01-02T16:13:41.097Z,95837.03
2023-01-02T16:16:16.619Z,95819.84
2023-01-02T16:18:49.405Z,95806.91
2023-01-02T16:21:19.891Z,95800.94
2023-01-02T16:23:52.852Z,95823.06
2023-01-02T16:26:25.123Z,95781.56
2023-01-02T16:28:53.541Z,95813.94
2023-01-02T16:31:23.741Z,95799.88
2023-01-02T16:33:52.441Z,95787.22
2023-01-02T16:36:26.545Z,95784.50
2023-01-02T16:38:58.946Z,95810.09
2023-01-02T16:42:17.029Z,95816.03
2023-01-02T16:44:55.703Z,95818.16
2023-01-02T16:47:25.109Z,95831.31
2023-01-02T16:49:53.589Z,95757.75
2023-01-02T16:52:23.821Z,95809.84
2023-01-02T16:54:54.225Z,95816.59
2023-01-02T16:57:24.451Z,95826.78
2023-01-02T16:59:53.042Z,95809.06
2023-01-02T17:02:21.475Z,95830.31
2023-01-02T17:04:49.854Z,95828.69
2023-01-02T17:07:22.092Z,95822.47
2023-01-02T17:09:52.206Z,95821.94
2023-01-02T17:12:20.539Z,95818.16
2023-01-02T17:14:48.830Z,95723.44
2023-01-02T17:17:17.193Z,95831.91
2023-01-02T17:19:45.547Z,95809.75
2023-01-02T17:22:13.977Z,95838.28
2023-01-02T17:24:43.356Z,95837.50
2023-01-02T17:27:13.444Z,95856.34
2023-01-02T17:29:41.996Z,95856.13
2023-01-02T17:32:10.394Z,95856.63
2023-01-02T17:34:38.746Z,95857.13
2023-01-02T17:37:07.196Z,95856.06
2023-01-02T17:39:35.469Z,95879.50
2023-01-02T17:42:03.826Z,95864.97
2023-01-02T17:44:33.596Z,95874.91
2023-01-02T17:47:30.929Z,95853.91
2023-01-02T17:49:50.619Z,95862.78
2023-01-02T17:52:19.808Z,95877.34
2023-01-02T17:54:54.747Z,95871.47
2023-01-02T17:57:25.528Z,95836.31
2023-01-02T17:59:55.524Z,95869.06
2023-01-02T18:02:23.932Z,95884.63
2023-01-02T18:04:55.127Z,95876.59
2023-01-02T18:07:23.811Z,95902.19
2023-01-02T18:10:07.582Z,95832.56
2023-01-02T18:12:38.409Z,95857.28
2023-01-02T18:15:15.080Z,95902.53
2023-01-02T18:17:44.513Z,95902.53
2023-01-02T18:20:15.228Z,95963.53
2023-01-02T18:22:49.017Z,95950.06
2023-01-02T18:25:20.981Z,95880.78
2023-01-02T18:27:49.852Z,95972.25
2023-01-02T18:30:24.033Z,95979.38
2023-01-02T18:33:01.958Z,95948.25
2023-01-02T18:38:31.409Z,95969.53
2023-01-02T18:40:59.848Z,95916.50
2023-01-02T18:43:30.226Z,95966.38
2023-01-02T18:46:01.930Z,95935.81
2023-01-02T18:48:31.552Z,95976.47
2023-01-02T18:51:01.583Z,95959.78
2023-01-02T18:53:38.922Z,95940.69
2023-01-02T18:56:18.655Z,95986.06
2023-01-02T18:58:51.774Z,96012.06
2023-01-02T19:01:36.032Z,95998.13
2023-01-02T19:04:24.493Z,96028.97
2023-01-02T19:06:58.626Z,96044.66
2023-01-02T19:09:32.585Z,96042.28
2023-01-02T19:12:37.068Z,96038.59
2023-01-02T19:15:33.750Z,96048.13
2023-01-02T19:18:35.921Z,96038.38
2023-01-02T19:21:16.716Z,96051.34
2023-01-02T19:23:54.788Z,96047.00
2023-01-02T19:26:28.109Z,96076.59
2023-01-02T19:29:04.068Z,96001.03
2023-01-02T19:31:45.022Z,96081.97
2023-01-02T19:34:28.844Z,96083.59
2023-01-02T19:37:11.694Z,96055.97
2023-01-02T19:39:47.254Z,96088.25
2023-01-02T19:42:24.024Z,96079.50
2023-01-02T19:44:55.325Z,96086.75
2023-01-02T19:47:29.559Z,96100.00
2023-01-02T19:50:01.782Z,96089.75
2023-01-02T19:52:32.260Z,96097.75
2023-01-02T19:55:02.925Z,96105.16
2023-01-02T19:57:32.766Z,96097.09
2023-01-02T20:00:02.753Z,96103.69
2023-01-02T20:02:32.658Z,96036.66
2023-01-02T20:05:04.264Z,96116.47
2023-01-02T20:07:34.702Z,96138.31
2023-01-02T20:10:04.480Z,96110.78
2023-01-02T20:12:40.905Z,96125.84
2023-01-02T20:15:15.418Z,96066.38
2023-01-02T20:17:46.154Z,96115.03
2023-01-02T20:20:19.431Z,96151.72
2023-01-02T20:22:52.272Z,96152.03
2023-01-02T20:25:24.845Z,96159.84
2023-01-02T20:27:55.366Z,96174.75
2023-01-02T20:30:25.681Z,96117.84
2023-01-02T20:32:56.543Z,96178.00
2023-01-02T20:35:27.769Z,96170.53
2023-01-02T20:37:57.693Z,96164.66
2023-01-02T20:40:28.972Z,96200.13
2023-01-02T20:42:59.265Z,96135.66
2023-01-02T20:45:29.211Z,96192.16
2023-01-02T20:47:58.983Z,96159.13
2023-01-02T20:50:30.196Z,96225.16
2023-01-02T20:52:58.914Z,96217.22
2023-01-02T20:55:27.276Z,96235.91
2023-01-02T20:57:56.090Z,96225.09
2023-01-02T21:00:24.559Z,96219.94
2023-01-02T21:02:53.132Z,96225.44
2023-01-02T21:05:21.844Z,96218.28
2023-01-02T21:07:51.779Z,96232.59
2023-01-02T21:10:20.277Z,96232.31
2023-01-02T21:13:06.320Z,96240.75
2023-01-02T21:15:45.515Z,96240.53
2023-01-02T21:18:18.606Z,96233.75
2023-01-02T21:20:50.118Z,96252.56
2023-01-02T21:23:22.196Z,96253.88
2023-01-02T21:25:52.967Z,96255.00
2023-01-02T21:28:24.259Z,96221.25
2023-01-02T21:30:55.233Z,96254.22
2023-01-02T21:33:26.378Z,96253.66
2023-01-02T21:35:57.918Z,96261.69
2023-01-02T21:38:29.958Z,96263.91
2023-01-02T21:41:22.228Z,96274.03
2023-01-02T21:43:52.025Z,96274.84
2023-01-02T21:46:21.822Z,96284.75
2023-01-02T21:48:51.692Z,96281.81
2023-01-02T21:51:21.135Z,96283.13
2023-01-02T21:53:51.559Z,96279.47
2023-01-02T21:56:21.174Z,96287.66
2023-01-02T21:58:50.990Z,96290.13
2023-01-02T22:01:21.319Z,96297.56
2023-01-02T22:03:51.599Z,96273.50
2023-01-02T22:06:21.575Z,96312.56
2023-01-02T22:08:52.863Z,96319.22
2023-01-02T22:11:39.745Z,96314.69
2023-01-02T22:14:11.677Z,96323.06
2023-01-02T22:16:40.142Z,96328.66
2023-01-02T22:19:08.528Z,96339.81
2023-01-02T22:21:36.960Z,96332.59
2023-01-02T22:24:07.404Z,96330.47
2023-01-02T22:26:37.365Z,96328.06
2023-01-02T22:29:06.725Z,96208.59
2023-01-02T22:31:36.206Z,96345.53
2023-01-02T22:34:05.506Z,96264.81
2023-01-02T22:36:33.864Z,96346.97
2023-01-02T22:39:27.195Z,96229.78
2023-01-02T22:42:41.344Z,96361.72
2023-01-02T22:45:05.475Z,96365.88
2023-01-02T22:47:37.441Z,96368.25
2023-01-02T22:50:12.135Z,96377.38
2023-01-02T22:52:40.925Z,96378.97
2023-01-02T22:55:17.285Z,96391.53
2023-01-02T22:57:51.759Z,96207.00
2023-01-02T23:00:23.520Z,96384.13
2023-01-02T23:02:52.029Z,96390.34
2023-01-02T23:05:22.563Z,96401.44
2023-01-02T23:07:51.020Z,96389.69
2023-01-02T23:10:19.506Z,96378.19
2023-01-02T23:12:49.277Z,96331.38
2023-01-02T23:15:17.631Z,96378.88
2023-01-02T23:18:03.090Z,96387.03
2023-01-02T23:20:31.517Z,96383.31
2023-01-02T23:22:59.837Z,96387.50
2023-01-02T23:25:28.640Z,96391.47
2023-01-02T23:27:58.475Z,96359.66
2023-01-02T23:30:26.897Z,96347.78
2023-01-02T23:32:55.361Z,96397.88
2023-01-02T23:35:23.909Z,96371.31
2023-01-02T23:37:52.393Z,96392.97
2023-01-02T23:40:20.764Z,96398.69
2023-01-02T23:42:49.097Z,96400.66
2023-01-02T23:45:19.041Z,96403.13
2023-01-02T23:47:47.448Z,96390.66
2023-01-02T23:50:16.671Z,96281.38
2023-01-02T23:52:45.153Z,96371.91
2023-01-02T23:55:13.488Z,96402.53
2023-01-02T23:57:41.800Z,96401.59
